createdAt,value
2018-12-23T00:00:55.195Z,1006.34
2018-12-23T00:01:55.481Z,1006.33
2018-12-23T00:02:55.164Z,1006.37
2018-12-23T00:03:55.122Z,1006.36
2018-12-23T00:04:55.263Z,1006.35
2018-12-23T00:05:55.104Z,1006.32
2018-12-23T00:06:55.188Z,1006.28
2018-12-23T00:07:55.042Z,1006.26
2018-12-23T00:08:55.053Z,1006.25
2018-12-23T00:09:55.017Z,1006.27
2018-12-23T00:10:54.975Z,1006.27
2018-12-23T00:11:54.977Z,1006.29
2018-12-23T00:12:55.086Z,1006.33
2018-12-23T00:13:54.937Z,1006.33
2018-12-23T00:14:54.899Z,1006.36
2018-12-23T00:15:54.899Z,1006.34
2018-12-23T00:16:54.843Z,1006.31
2018-12-23T00:17:54.850Z,1006.37
2018-12-23T00:18:54.839Z,1006.36
2018-12-23T00:19:54.844Z,1006.40
2018-12-23T00:20:54.783Z,1006.43
2018-12-23T00:21:54.757Z,1006.45
2018-12-23T00:22:54.751Z,1006.44
2018-12-23T00:23:54.688Z,1006.49
2018-12-23T00:24:54.740Z,1006.49
2018-12-23T00:25:54.673Z,1006.44
2018-12-23T00:26:54.672Z,1006.44
2018-12-23T00:27:54.638Z,1006.48
2018-12-23T00:28:54.706Z,1006.49
2018-12-23T00:29:54.591Z,1006.48
2018-12-23T00:30:54.535Z,1006.48
2018-12-23T00:31:54.553Z,1006.48
2018-12-23T00:32:54.498Z,1006.45
2018-12-23T00:33:54.504Z,1006.48
2018-12-23T00:34:54.479Z,1006.47
2018-12-23T00:35:54.456Z,1006.44
2018-12-23T00:36:54.439Z,1006.47
2018-12-23T00:37:54.419Z,1006.44
2018-12-23T00:38:54.386Z,1006.49
2018-12-23T00:39:54.350Z,1006.51
2018-12-23T00:40:54.317Z,1006.54
2018-12-23T00:41:54.312Z,1006.53
2018-12-23T00:42:54.269Z,1006.53
2018-12-23T00:43:54.357Z,1006.42
2018-12-23T00:44:54.265Z,1006.38
2018-12-23T00:45:54.215Z,1006.37
2018-12-23T00:46:54.214Z,1006.38
2018-12-23T00:47:54.173Z,1006.38
2018-12-23T00:48:54.168Z,1006.41
2018-12-23T00:49:54.219Z,1006.44
2018-12-23T00:50:54.138Z,1006.45
2018-12-23T00:51:54.083Z,1006.47
2018-12-23T00:52:54.067Z,1006.45
2018-12-23T00:53:54.049Z,1006.44
2018-12-23T00:54:54.035Z,1006.40
2018-12-23T00:55:54.006Z,1006.39
2018-12-23T00:56:53.969Z,1006.40
2018-12-23T00:57:53.952Z,1006.37
2018-12-23T00:58:53.926Z,1006.39
2018-12-23T00:59:53.947Z,1006.43
2018-12-23T01:00:53.883Z,1006.45
2018-12-23T01:01:53.962Z,1006.41
2018-12-23T01:02:54.513Z,1006.45
2018-12-23T01:03:53.859Z,1006.43
2018-12-23T01:04:53.836Z,1006.42
2018-12-23T01:05:54.174Z,1006.45
2018-12-23T01:06:53.742Z,1006.49
2018-12-23T01:07:53.727Z,1006.52
2018-12-23T01:08:53.711Z,1006.57
2018-12-23T01:09:53.727Z,1006.62
2018-12-23T01:10:53.664Z,1006.63
2018-12-23T01:11:53.665Z,1006.63
2018-12-23T01:12:53.623Z,1006.58
2018-12-23T01:13:53.597Z,1006.58
2018-12-23T01:14:53.571Z,1006.59
2018-12-23T01:15:53.618Z,1006.64
2018-12-23T01:16:53.532Z,1006.62
2018-12-23T01:17:53.506Z,1006.63
2018-12-23T01:18:53.483Z,1006.59
2018-12-23T01:19:53.506Z,1006.60
2018-12-23T01:20:53.439Z,1006.63
2018-12-23T01:21:53.415Z,1006.65
2018-12-23T01:22:53.406Z,1006.70
2018-12-23T01:23:53.374Z,1006.70
2018-12-23T01:24:53.360Z,1006.68
2018-12-23T01:25:54.610Z,1006.67
2018-12-23T01:26:53.345Z,1006.67
2018-12-23T01:27:53.320Z,1006.65
2018-12-23T01:28:53.268Z,1006.67
2018-12-23T01:29:53.270Z,1006.71
2018-12-23T01:30:53.262Z,1006.68
2018-12-23T01:31:53.218Z,1006.68
2018-12-23T01:32:53.212Z,1006.67
2018-12-23T01:33:53.171Z,1006.68
2018-12-23T01:34:53.162Z,1006.72
2018-12-23T01:35:53.784Z,1006.76
2018-12-23T01:36:53.096Z,1006.80
2018-12-23T01:37:53.090Z,1006.79
2018-12-23T01:38:53.051Z,1006.76
2018-12-23T01:39:53.053Z,1006.75
2018-12-23T01:40:53.003Z,1006.77
2018-12-23T01:41:53.168Z,1006.74
2018-12-23T01:42:53.306Z,1006.77
2018-12-23T01:43:52.950Z,1006.77
2018-12-23T01:44:52.936Z,1006.77
2018-12-23T01:45:52.957Z,1006.82
2018-12-23T01:46:52.876Z,1006.74
2018-12-23T01:47:52.896Z,1006.76
2018-12-23T01:48:53.130Z,1006.85
2018-12-23T01:49:52.822Z,1006.90
2018-12-23T01:50:52.782Z,1006.92
2018-12-23T01:51:52.779Z,1006.93
2018-12-23T01:52:53.873Z,1006.96
2018-12-23T01:53:52.789Z,1007.03
2018-12-23T01:54:52.849Z,1007.01
2018-12-23T01:55:52.678Z,1007.04
2018-12-23T01:56:52.714Z,1007.07
2018-12-23T01:57:52.646Z,1007.04
2018-12-23T01:58:52.679Z,1007.03
2018-12-23T01:59:52.600Z,1007.00
2018-12-23T02:00:52.845Z,1007.03
2018-12-23T02:01:52.569Z,1007.04
2018-12-23T02:02:52.540Z,1006.98
2018-12-23T02:03:52.498Z,1007.00
2018-12-23T02:04:52.509Z,1007.01
2018-12-23T02:05:52.452Z,1007.00
2018-12-23T02:06:52.452Z,1006.99
2018-12-23T02:07:52.424Z,1006.97
2018-12-23T02:08:52.393Z,1007.02
2018-12-23T02:09:53.825Z,1007.02
2018-12-23T02:10:52.345Z,1006.96
2018-12-23T02:11:52.320Z,1006.94
2018-12-23T02:12:52.322Z,1006.96
2018-12-23T02:13:52.278Z,1006.93
2018-12-23T02:14:52.743Z,1006.92
2018-12-23T02:15:52.233Z,1006.99
2018-12-23T02:16:52.247Z,1006.93
2018-12-23T02:17:52.243Z,1006.94
2018-12-23T02:18:52.174Z,1006.92
2018-12-23T02:19:52.192Z,1006.95
2018-12-23T02:20:52.138Z,1007.00
2018-12-23T02:21:52.359Z,1007.01
2018-12-23T02:22:52.103Z,1007.02
2018-12-23T02:23:52.072Z,1007.04
2018-12-23T02:24:52.040Z,1007.02
2018-12-23T02:25:52.026Z,1007.00
2018-12-23T02:26:52.039Z,1006.95
2018-12-23T02:27:52.069Z,1006.97
2018-12-23T02:28:51.955Z,1006.98
2018-12-23T02:29:51.946Z,1006.97
2018-12-23T02:30:51.926Z,1006.97
2018-12-23T02:31:51.908Z,1007.02
2018-12-23T02:32:51.897Z,1007.02
2018-12-23T02:33:51.878Z,1007.00
2018-12-23T02:34:51.911Z,1007.00
2018-12-23T02:35:55.836Z,1007.06
2018-12-23T02:36:52.495Z,1007.11
2018-12-23T02:37:54.527Z,1007.02
2018-12-23T02:38:51.765Z,1007.00
2018-12-23T02:39:52.053Z,1007.00
2018-12-23T02:40:51.703Z,1007.04
2018-12-23T02:41:51.679Z,1007.02
2018-12-23T02:42:51.728Z,1007.03
2018-12-23T02:43:51.685Z,1006.96
2018-12-23T02:44:51.687Z,1006.92
2018-12-23T02:45:51.617Z,1006.90
2018-12-23T02:46:51.549Z,1006.86
2018-12-23T02:47:51.544Z,1006.89
2018-12-23T02:48:51.533Z,1006.97
2018-12-23T02:49:51.513Z,1006.99
2018-12-23T02:50:51.502Z,1006.95
2018-12-23T02:51:51.467Z,1006.98
2018-12-23T02:52:51.451Z,1006.99
2018-12-23T02:53:51.411Z,1006.94
2018-12-23T02:54:51.425Z,1006.94
2018-12-23T02:55:51.367Z,1006.92
2018-12-23T02:56:51.363Z,1006.95
2018-12-23T02:57:51.319Z,1006.96
2018-12-23T02:58:51.350Z,1006.99
2018-12-23T02:59:51.290Z,1007.01
2018-12-23T03:00:51.276Z,1007.03
2018-12-23T03:01:51.225Z,1007.01
2018-12-23T03:02:51.219Z,1007.04
2018-12-23T03:03:51.219Z,1007.02
2018-12-23T03:04:51.216Z,1007.06
2018-12-23T03:05:51.161Z,1006.97
2018-12-23T03:06:51.145Z,1006.96
2018-12-23T03:07:51.113Z,1006.95
2018-12-23T03:08:51.092Z,1006.95
2018-12-23T03:09:51.078Z,1006.94
2018-12-23T03:10:51.043Z,1006.98
2018-12-23T03:11:51.023Z,1006.98
2018-12-23T03:12:51.023Z,1006.97
2018-12-23T03:13:50.977Z,1006.99
2018-12-23T03:14:50.974Z,1006.98
2018-12-23T03:15:50.948Z,1006.98
2018-12-23T03:16:50.906Z,1006.93
2018-12-23T03:17:50.868Z,1006.96
2018-12-23T03:18:50.858Z,1006.95
2018-12-23T03:19:50.844Z,1006.94
2018-12-23T03:20:50.818Z,1006.98
2018-12-23T03:21:50.883Z,1006.95
2018-12-23T03:22:50.817Z,1006.94
2018-12-23T03:23:50.771Z,1006.97
2018-12-23T03:24:50.716Z,1006.99
2018-12-23T03:25:50.712Z,1007.00
2018-12-23T03:26:50.699Z,1007.00
2018-12-23T03:27:50.665Z,1006.96
2018-12-23T03:28:50.625Z,1006.94
2018-12-23T03:29:50.599Z,1006.93
2018-12-23T03:30:50.621Z,1006.89
2018-12-23T03:31:50.583Z,1006.95
2018-12-23T03:32:50.533Z,1006.88
2018-12-23T03:33:50.540Z,1006.88
2018-12-23T03:34:50.511Z,1006.88
2018-12-23T03:35:50.485Z,1006.88
2018-12-23T03:36:50.485Z,1006.90
2018-12-23T03:37:50.484Z,1006.87
2018-12-23T03:38:50.402Z,1006.85
2018-12-23T03:39:50.377Z,1006.85
2018-12-23T03:40:50.404Z,1006.84
2018-12-23T03:41:50.346Z,1006.84
2018-12-23T03:42:50.314Z,1006.86
2018-12-23T03:43:50.312Z,1006.85
2018-12-23T03:44:50.296Z,1006.84
2018-12-23T03:45:50.248Z,1006.81
2018-12-23T03:46:50.224Z,1006.79
2018-12-23T03:47:50.212Z,1006.75
2018-12-23T03:48:50.261Z,1006.78
2018-12-23T03:49:50.176Z,1006.76
2018-12-23T03:50:50.148Z,1006.76
2018-12-23T03:51:50.162Z,1006.79
2018-12-23T03:52:50.104Z,1006.82
2018-12-23T03:53:50.089Z,1006.84
2018-12-23T03:54:50.087Z,1006.79
2018-12-23T03:55:50.115Z,1006.82
2018-12-23T03:56:50.045Z,1006.81
2018-12-23T03:57:50.017Z,1006.83
2018-12-23T03:58:50.007Z,1006.85
2018-12-23T03:59:49.964Z,1006.83
2018-12-23T04:00:49.919Z,1006.78
2018-12-23T04:01:49.958Z,1006.78
2018-12-23T04:02:49.886Z,1006.82
2018-12-23T04:03:49.857Z,1006.76
2018-12-23T04:04:49.854Z,1006.77
2018-12-23T04:05:49.817Z,1006.75
2018-12-23T04:06:49.808Z,1006.73
2018-12-23T04:07:49.773Z,1006.67
2018-12-23T04:08:49.762Z,1006.65
2018-12-23T04:09:49.750Z,1006.65
2018-12-23T04:10:49.722Z,1006.68
2018-12-23T04:11:49.683Z,1006.65
2018-12-23T04:12:49.712Z,1006.70
2018-12-23T04:13:49.664Z,1006.70
2018-12-23T04:14:49.660Z,1006.69
2018-12-23T04:15:49.607Z,1006.68
2018-12-23T04:16:49.583Z,1006.71
2018-12-23T04:17:49.542Z,1006.70
2018-12-23T04:18:49.554Z,1006.71
2018-12-23T04:19:49.569Z,1006.69
2018-12-23T04:20:49.523Z,1006.73
2018-12-23T04:21:49.529Z,1006.72
2018-12-23T04:22:49.464Z,1006.74
2018-12-23T04:23:49.412Z,1006.71
2018-12-23T04:24:49.415Z,1006.70
2018-12-23T04:25:49.391Z,1006.69
2018-12-23T04:26:49.368Z,1006.72
2018-12-23T04:27:49.328Z,1006.73
2018-12-23T04:28:49.324Z,1006.75
2018-12-23T04:29:49.303Z,1006.70
2018-12-23T04:30:49.321Z,1006.70
2018-12-23T04:31:49.232Z,1006.70
2018-12-23T04:32:49.211Z,1006.69
2018-12-23T04:33:49.280Z,1006.61
2018-12-23T04:34:49.199Z,1006.60
2018-12-23T04:35:49.175Z,1006.59
2018-12-23T04:36:49.157Z,1006.59
2018-12-23T04:37:49.100Z,1006.61
2018-12-23T04:38:49.107Z,1006.60
2018-12-23T04:39:49.081Z,1006.62
2018-12-23T04:40:49.044Z,1006.62
2018-12-23T04:41:49.018Z,1006.61
2018-12-23T04:42:49.033Z,1006.63
2018-12-23T04:43:48.970Z,1006.60
2018-12-23T04:44:48.967Z,1006.55
2018-12-23T04:45:48.943Z,1006.54
2018-12-23T04:46:48.943Z,1006.44
2018-12-23T04:47:48.894Z,1006.47
2018-12-23T04:48:48.878Z,1006.53
2018-12-23T04:49:48.868Z,1006.52
2018-12-23T04:50:48.824Z,1006.46
2018-12-23T04:51:48.793Z,1006.47
2018-12-23T04:52:48.775Z,1006.47
2018-12-23T04:53:48.778Z,1006.51
2018-12-23T04:54:48.741Z,1006.53
2018-12-23T04:55:48.724Z,1006.49
2018-12-23T04:56:48.681Z,1006.50
2018-12-23T04:57:48.712Z,1006.47
2018-12-23T04:58:48.692Z,1006.48
2018-12-23T04:59:48.612Z,1006.45
2018-12-23T05:00:48.625Z,1006.40
2018-12-23T05:01:48.582Z,1006.40
2018-12-23T05:02:48.552Z,1006.42
2018-12-23T05:03:48.572Z,1006.43
2018-12-23T05:04:48.540Z,1006.45
2018-12-23T05:05:48.533Z,1006.45
2018-12-23T05:06:48.466Z,1006.42
2018-12-23T05:07:48.440Z,1006.40
2018-12-23T05:08:48.447Z,1006.36
2018-12-23T05:09:48.461Z,1006.34
2018-12-23T05:10:48.371Z,1006.33
2018-12-23T05:11:48.476Z,1006.35
2018-12-23T05:12:48.364Z,1006.35
2018-12-23T05:13:48.340Z,1006.37
2018-12-23T05:14:48.302Z,1006.42
2018-12-23T05:15:48.292Z,1006.38
2018-12-23T05:16:48.247Z,1006.35
2018-12-23T05:17:48.344Z,1006.37
2018-12-23T05:18:48.193Z,1006.37
2018-12-23T05:19:48.186Z,1006.36
2018-12-23T05:20:48.179Z,1006.34
2018-12-23T05:21:48.126Z,1006.27
2018-12-23T05:22:48.128Z,1006.31
2018-12-23T05:23:48.101Z,1006.23
2018-12-23T05:24:48.058Z,1006.25
2018-12-23T05:25:48.063Z,1006.21
2018-12-23T05:26:48.035Z,1006.25
2018-12-23T05:27:48.028Z,1006.26
2018-12-23T05:28:47.986Z,1006.27
2018-12-23T05:29:47.957Z,1006.25
2018-12-23T05:30:47.980Z,1006.29
2018-12-23T05:31:47.925Z,1006.28
2018-12-23T05:32:47.912Z,1006.29
2018-12-23T05:33:47.893Z,1006.29
2018-12-23T05:34:47.893Z,1006.35
2018-12-23T05:35:47.818Z,1006.33
2018-12-23T05:36:52.327Z,1006.34
2018-12-23T05:37:47.782Z,1006.27
2018-12-23T05:38:47.780Z,1006.28
2018-12-23T05:39:47.761Z,1006.28
2018-12-23T05:40:47.740Z,1006.28
2018-12-23T05:41:47.710Z,1006.27
2018-12-23T05:42:47.700Z,1006.27
2018-12-23T05:43:47.690Z,1006.32
2018-12-23T05:44:47.637Z,1006.31
2018-12-23T05:45:47.598Z,1006.29
2018-12-23T05:46:47.672Z,1006.33
2018-12-23T05:47:47.587Z,1006.33
2018-12-23T05:48:47.563Z,1006.34
2018-12-23T05:49:47.514Z,1006.34
2018-12-23T05:50:47.484Z,1006.36
2018-12-23T05:51:47.502Z,1006.37
2018-12-23T05:52:47.542Z,1006.35
2018-12-23T05:53:47.450Z,1006.34
2018-12-23T05:54:47.416Z,1006.40
2018-12-23T05:55:47.375Z,1006.31
2018-12-23T05:56:47.394Z,1006.38
2018-12-23T05:57:47.327Z,1006.39
2018-12-23T05:58:47.327Z,1006.36
2018-12-23T05:59:47.298Z,1006.40
2018-12-23T06:00:47.297Z,1006.40
2018-12-23T06:01:47.396Z,1006.38
2018-12-23T06:02:47.276Z,1006.39
2018-12-23T06:03:47.308Z,1006.40
2018-12-23T06:04:47.198Z,1006.39
2018-12-23T06:05:47.157Z,1006.34
2018-12-23T06:06:47.130Z,1006.37
2018-12-23T06:07:47.107Z,1006.35
2018-12-23T06:08:47.106Z,1006.33
2018-12-23T06:09:47.078Z,1006.34
2018-12-23T06:10:47.074Z,1006.36
2018-12-23T06:11:47.026Z,1006.47
2018-12-23T06:12:47.000Z,1006.43
2018-12-23T06:13:46.976Z,1006.48
2018-12-23T06:14:46.957Z,1006.42
2018-12-23T06:15:46.953Z,1006.42
2018-12-23T06:16:46.931Z,1006.42
2018-12-23T06:17:46.891Z,1006.47
2018-12-23T06:18:46.870Z,1006.45
2018-12-23T06:19:46.874Z,1006.42
2018-12-23T06:20:46.831Z,1006.40
2018-12-23T06:21:46.809Z,1006.36
2018-12-23T06:22:46.787Z,1006.41
2018-12-23T06:23:46.777Z,1006.41
2018-12-23T06:24:46.810Z,1006.41
2018-12-23T06:25:46.718Z,1006.41
2018-12-23T06:26:46.691Z,1006.44
2018-12-23T06:27:46.698Z,1006.42
2018-12-23T06:30:10.686Z,1006.45
2018-12-23T06:31:10.714Z,1006.44
2018-12-23T06:32:10.641Z,1006.45
2018-12-23T06:33:10.685Z,1006.48
2018-12-23T06:34:10.576Z,1006.53
2018-12-23T06:35:10.561Z,1006.51
2018-12-23T06:36:10.537Z,1006.48
2018-12-23T06:37:10.632Z,1006.48
2018-12-23T06:38:10.508Z,1006.49
2018-12-23T06:39:10.484Z,1006.48
2018-12-23T06:40:10.441Z,1006.45
2018-12-23T06:41:10.435Z,1006.48
2018-12-23T06:42:10.468Z,1006.44
2018-12-23T06:43:10.392Z,1006.42
2018-12-23T06:44:10.357Z,1006.45
2018-12-23T06:45:10.371Z,1006.42
2018-12-23T06:46:10.306Z,1006.41
2018-12-23T06:47:10.284Z,1006.35
2018-12-23T06:48:10.306Z,1006.38
2018-12-23T06:49:10.243Z,1006.38
2018-12-23T06:50:10.272Z,1006.38
2018-12-23T06:51:10.252Z,1006.39
2018-12-23T06:52:10.201Z,1006.40
2018-12-23T06:53:10.177Z,1006.36
2018-12-23T06:54:10.160Z,1006.39
2018-12-23T06:55:10.111Z,1006.41
2018-12-23T06:56:10.097Z,1006.40
2018-12-23T06:57:10.061Z,1006.43
2018-12-23T06:58:10.069Z,1006.43
2018-12-23T06:59:10.020Z,1006.41
2018-12-23T07:00:10.053Z,1006.44
2018-12-23T07:01:09.975Z,1006.44
2018-12-23T07:02:09.993Z,1006.44
2018-12-23T07:03:09.956Z,1006.47
2018-12-23T07:04:09.917Z,1006.44
2018-12-23T07:05:09.892Z,1006.41
2018-12-23T07:06:09.943Z,1006.38
2018-12-23T07:07:18.447Z,1006.43
2018-12-23T07:08:09.839Z,1006.34
2018-12-23T07:09:09.865Z,1006.32
2018-12-23T07:10:09.784Z,1006.33
2018-12-23T07:11:09.786Z,1006.31
2018-12-23T07:12:09.757Z,1006.33
2018-12-23T07:13:09.710Z,1006.32
2018-12-23T07:14:09.706Z,1006.28
2018-12-23T07:15:09.698Z,1006.26
2018-12-23T07:16:09.653Z,1006.31
2018-12-23T07:17:09.627Z,1006.27
2018-12-23T07:18:09.617Z,1006.27
2018-12-23T07:19:09.679Z,1006.28
2018-12-23T07:20:09.572Z,1006.27
2018-12-23T07:21:09.539Z,1006.31
2018-12-23T07:22:09.529Z,1006.32
2018-12-23T07:23:09.518Z,1006.29
2018-12-23T07:24:09.477Z,1006.25
2018-12-23T07:25:09.469Z,1006.29
2018-12-23T07:26:09.439Z,1006.27
2018-12-23T07:27:09.526Z,1006.30
2018-12-23T07:28:09.449Z,1006.27
2018-12-23T07:29:09.365Z,1006.23
2018-12-23T07:30:09.363Z,1006.27
2018-12-23T07:31:09.343Z,1006.24
2018-12-23T07:32:09.342Z,1006.26
2018-12-23T07:33:09.275Z,1006.21
2018-12-23T07:34:09.261Z,1006.24
2018-12-23T07:35:09.262Z,1006.24
2018-12-23T07:36:09.212Z,1006.23
2018-12-23T07:37:09.190Z,1006.27
2018-12-23T07:38:09.199Z,1006.28
2018-12-23T07:39:09.178Z,1006.25
2018-12-23T07:40:09.122Z,1006.26
2018-12-23T07:41:09.168Z,1006.25
2018-12-23T07:42:09.082Z,1006.22
2018-12-23T07:43:09.109Z,1006.23
2018-12-23T07:44:09.060Z,1006.20
2018-12-23T07:45:09.035Z,1006.23
2018-12-23T07:46:09.062Z,1006.19
2018-12-23T07:47:09.024Z,1006.16
2018-12-23T07:48:08.974Z,1006.17
2018-12-23T07:49:08.967Z,1006.12
2018-12-23T07:50:08.936Z,1006.13
2018-12-23T07:51:08.902Z,1006.15
2018-12-23T07:52:08.859Z,1006.15
2018-12-23T07:53:08.849Z,1006.16
2018-12-23T07:54:08.858Z,1006.15
2018-12-23T07:55:08.800Z,1006.18
2018-12-23T07:56:08.819Z,1006.16
2018-12-23T07:57:08.774Z,1006.25
2018-12-23T07:58:08.754Z,1006.21
2018-12-23T07:59:08.715Z,1006.20
2018-12-23T08:00:08.691Z,1006.17
2018-12-23T08:01:08.672Z,1006.15
2018-12-23T08:02:08.669Z,1006.12
2018-12-23T08:03:08.617Z,1006.16
2018-12-23T08:04:08.640Z,1006.11
2018-12-23T08:05:08.596Z,1006.15
2018-12-23T08:06:08.574Z,1006.15
2018-12-23T08:07:08.611Z,1006.14
2018-12-23T08:08:08.566Z,1006.18
2018-12-23T08:09:08.514Z,1006.13
2018-12-23T08:10:08.475Z,1006.08
2018-12-23T08:11:08.450Z,1006.09
2018-12-23T08:12:08.459Z,1006.11
2018-12-23T08:13:08.435Z,1006.07
2018-12-23T08:14:08.385Z,1006.06
2018-12-23T08:15:08.383Z,1006.10
2018-12-23T08:16:08.369Z,1006.08
2018-12-23T08:17:08.308Z,1006.07
2018-12-23T08:18:08.310Z,1006.04
2018-12-23T08:19:08.320Z,1006.06
2018-12-23T08:20:08.278Z,1006.03
2018-12-23T08:21:08.285Z,1006.10
2018-12-23T08:22:08.240Z,1006.07
2018-12-23T08:23:08.210Z,1006.05
2018-12-23T08:24:08.178Z,1006.07
2018-12-23T08:25:08.198Z,1006.03
2018-12-23T08:26:08.119Z,1006.03
2018-12-23T08:27:08.111Z,1006.05
2018-12-23T08:28:08.081Z,1006.03
2018-12-23T08:29:08.086Z,1006.02
2018-12-23T08:30:08.054Z,1006.02
2018-12-23T08:31:08.006Z,1006.00
2018-12-23T08:32:08.027Z,1006.01
2018-12-23T08:33:07.975Z,1005.97
2018-12-23T08:34:07.982Z,1006.02
2018-12-23T08:35:07.945Z,1006.03
2018-12-23T08:36:07.930Z,1005.95
2018-12-23T08:37:07.910Z,1005.99
2018-12-23T08:38:07.889Z,1006.02
2018-12-23T08:39:07.854Z,1006.02
2018-12-23T08:40:07.835Z,1006.03
2018-12-23T08:41:07.795Z,1006.02
2018-12-23T08:42:07.804Z,1006.03
2018-12-23T08:43:07.786Z,1006.05
2018-12-23T08:44:07.738Z,1006.04
2018-12-23T08:45:07.756Z,1006.07
2018-12-23T08:46:07.733Z,1006.07
2018-12-23T08:47:07.683Z,1006.10
2018-12-23T08:48:07.647Z,1006.09
2018-12-23T08:49:07.617Z,1006.11
2018-12-23T08:50:07.595Z,1006.13
2018-12-23T08:51:07.603Z,1006.16
2018-12-23T08:52:07.591Z,1006.14
2018-12-23T08:53:07.553Z,1006.08
2018-12-23T08:54:07.506Z,1006.03
2018-12-23T08:55:07.487Z,1006.07
2018-12-23T08:56:07.466Z,1006.09
2018-12-23T08:57:07.441Z,1006.07
2018-12-23T08:58:07.440Z,1006.06
2018-12-23T08:59:07.461Z,1006.09
2018-12-23T09:00:07.404Z,1006.06
2018-12-23T09:01:07.468Z,1006.08
2018-12-23T09:02:07.371Z,1006.10
2018-12-23T09:03:07.335Z,1006.12
2018-12-23T09:04:07.291Z,1006.08
2018-12-23T09:05:07.327Z,1006.05
2018-12-23T09:06:07.271Z,1006.05
2018-12-23T09:07:07.242Z,1006.04
2018-12-23T09:08:07.199Z,1006.04
2018-12-23T09:09:07.192Z,1006.07
2018-12-23T09:10:07.186Z,1006.07
2018-12-23T09:11:07.182Z,1006.06
2018-12-23T09:12:07.135Z,1006.03
2018-12-23T09:13:07.179Z,1006.03
2018-12-23T09:14:07.086Z,1006.07
2018-12-23T09:15:07.073Z,1006.04
2018-12-23T09:16:07.035Z,1006.05
2018-12-23T09:17:07.033Z,1006.06
2018-12-23T09:18:06.992Z,1006.06
2018-12-23T09:19:06.999Z,1006.04
2018-12-23T09:20:06.992Z,1006.06
2018-12-23T09:21:06.981Z,1006.09
2018-12-23T09:22:06.946Z,1006.05
2018-12-23T09:23:06.879Z,1006.05
2018-12-23T09:24:06.865Z,1006.07
2018-12-23T09:25:06.888Z,1006.03
2018-12-23T09:26:06.826Z,1006.00
2018-12-23T09:27:06.819Z,1006.02
2018-12-23T09:28:08.877Z,1005.98
2018-12-23T09:29:06.799Z,1005.97
2018-12-23T09:30:06.795Z,1005.96
2018-12-23T09:31:06.759Z,1005.93
2018-12-23T09:32:06.713Z,1005.93
2018-12-23T09:33:06.672Z,1005.90
2018-12-23T09:34:06.652Z,1005.91
2018-12-23T09:35:06.637Z,1005.92
2018-12-23T09:36:06.647Z,1005.90
2018-12-23T09:37:06.615Z,1005.89
2018-12-23T09:38:06.648Z,1005.90
2018-12-23T09:39:06.540Z,1005.87
2018-12-23T09:40:06.535Z,1005.88
2018-12-23T09:41:06.495Z,1005.85
2018-12-23T09:42:06.487Z,1005.80
2018-12-23T09:43:06.457Z,1005.82
2018-12-23T09:44:06.429Z,1005.83
2018-12-23T09:45:06.442Z,1005.88
2018-12-23T09:46:06.418Z,1005.82
2018-12-23T09:47:06.395Z,1005.85
2018-12-23T09:48:06.392Z,1005.81
2018-12-23T09:49:06.365Z,1005.83
2018-12-23T09:50:06.327Z,1005.84
2018-12-23T09:51:06.321Z,1005.84
2018-12-23T09:52:06.302Z,1005.81
2018-12-23T09:53:06.265Z,1005.83
2018-12-23T09:54:06.259Z,1005.78
2018-12-23T09:55:06.217Z,1005.78
2018-12-23T09:56:06.171Z,1005.76
2018-12-23T09:57:06.200Z,1005.78
2018-12-23T09:58:06.154Z,1005.75
2018-12-23T09:59:06.145Z,1005.75
2018-12-23T10:00:06.123Z,1005.77
2018-12-23T10:01:06.069Z,1005.73
2018-12-23T10:02:06.045Z,1005.72
2018-12-23T10:03:06.065Z,1005.65
2018-12-23T10:04:06.025Z,1005.67
2018-12-23T10:05:06.017Z,1005.62
2018-12-23T10:06:06.010Z,1005.65
2018-12-23T10:07:05.949Z,1005.60
2018-12-23T10:08:10.003Z,1005.60
2018-12-23T10:09:05.921Z,1005.58
2018-12-23T10:10:05.892Z,1005.53
2018-12-23T10:11:05.895Z,1005.52
2018-12-23T10:12:05.855Z,1005.49
2018-12-23T10:13:05.861Z,1005.47
2018-12-23T10:14:05.802Z,1005.43
2018-12-23T10:15:05.792Z,1005.44
2018-12-23T10:16:05.774Z,1005.43
2018-12-23T10:17:05.724Z,1005.43
2018-12-23T10:18:05.748Z,1005.47
2018-12-23T10:19:05.705Z,1005.37
2018-12-23T10:20:05.703Z,1005.41
2018-12-23T10:21:05.661Z,1005.40
2018-12-23T10:22:05.683Z,1005.38
2018-12-23T10:23:05.601Z,1005.35
2018-12-23T10:24:05.587Z,1005.31
2018-12-23T10:25:05.616Z,1005.28
2018-12-23T10:26:05.642Z,1005.28
2018-12-23T10:27:05.537Z,1005.27
2018-12-23T10:28:05.496Z,1005.25
2018-12-23T10:29:05.478Z,1005.26
2018-12-23T10:30:05.460Z,1005.25
2018-12-23T10:31:05.467Z,1005.25
2018-12-23T10:32:05.464Z,1005.22
2018-12-23T10:33:05.401Z,1005.22
2018-12-23T10:34:05.387Z,1005.24
2018-12-23T10:35:05.349Z,1005.22
2018-12-23T10:36:05.339Z,1005.21
2018-12-23T10:37:05.328Z,1005.21
2018-12-23T10:38:05.299Z,1005.25
2018-12-23T10:39:05.280Z,1005.23
2018-12-23T10:40:05.238Z,1005.24
2018-12-23T10:41:05.228Z,1005.18
2018-12-23T10:42:05.300Z,1005.20
2018-12-23T10:43:05.181Z,1005.19
2018-12-23T10:44:05.282Z,1005.16
2018-12-23T10:45:05.140Z,1005.16
2018-12-23T10:46:05.113Z,1005.09
2018-12-23T10:47:05.085Z,1005.09
2018-12-23T10:48:05.168Z,1005.09
2018-12-23T10:49:05.084Z,1005.08
2018-12-23T10:50:05.032Z,1005.05
2018-12-23T10:51:05.077Z,1005.04
2018-12-23T10:52:05.053Z,1005.00
2018-12-23T10:53:04.988Z,1004.99
2018-12-23T10:54:04.986Z,1004.94
2018-12-23T10:55:04.935Z,1004.95
2018-12-23T10:56:04.916Z,1004.92
2018-12-23T10:57:04.903Z,1004.91
2018-12-23T10:58:04.876Z,1004.92
2018-12-23T10:59:04.878Z,1004.87
2018-12-23T11:00:04.885Z,1004.83
2018-12-23T11:01:04.827Z,1004.79
2018-12-23T11:02:13.322Z,1004.77
2018-12-23T11:03:04.782Z,1004.77
2018-12-23T11:04:04.744Z,1004.77
2018-12-23T11:05:04.707Z,1004.70
2018-12-23T11:06:04.701Z,1004.70
2018-12-23T11:07:04.679Z,1004.64
2018-12-23T11:08:04.711Z,1004.58
2018-12-23T11:09:04.790Z,1004.55
2018-12-23T11:11:38.799Z,1004.53
2018-12-23T11:12:27.631Z,1004.48
2018-12-23T11:13:27.690Z,1004.42
2018-12-23T11:14:27.582Z,1004.43
2018-12-23T11:16:50.574Z,1004.34
2018-12-23T11:17:50.600Z,1004.33
2018-12-23T11:18:50.525Z,1004.30
2018-12-23T11:19:50.508Z,1004.32
2018-12-23T11:20:50.512Z,1004.27
2018-12-23T11:23:23.571Z,1004.29
2018-12-23T11:24:13.453Z,1004.22
2018-12-23T11:25:13.463Z,1004.20
2018-12-23T11:26:13.495Z,1004.18
2018-12-23T11:27:13.394Z,1004.20
2018-12-23T11:29:45.562Z,1004.17
2018-12-23T11:30:35.414Z,1004.16
2018-12-23T11:32:58.413Z,1004.14
2018-12-23T11:33:58.366Z,1004.13
2018-12-23T11:36:31.547Z,1004.07
2018-12-23T11:38:44.367Z,1004.01
2018-12-23T11:39:44.370Z,1004.00
2018-12-23T11:40:44.316Z,1003.98
2018-12-23T11:41:44.302Z,1003.98
2018-12-23T11:42:44.306Z,1004.01
2018-12-23T11:43:44.250Z,1004.03
2018-12-23T11:44:44.238Z,1004.00
2018-12-23T11:45:44.221Z,1003.97
2018-12-23T11:48:07.263Z,1003.93
2018-12-23T11:49:07.340Z,1003.90
2018-12-23T11:50:07.151Z,1003.83
2018-12-23T11:51:07.146Z,1003.83
2018-12-23T11:53:30.187Z,1003.80
2018-12-23T11:54:30.099Z,1003.79
2018-12-23T11:56:53.199Z,1003.77
2018-12-23T11:57:53.145Z,1003.71
2018-12-23T11:58:53.101Z,1003.70
2018-12-23T11:59:53.060Z,1003.67
2018-12-23T12:00:53.087Z,1003.71
2018-12-23T12:01:53.024Z,1003.68
2018-12-23T12:02:53.030Z,1003.66
2018-12-23T12:03:52.977Z,1003.66
2018-12-23T12:04:52.963Z,1003.59
2018-12-23T12:05:53.030Z,1003.58
2018-12-23T12:08:26.098Z,1003.58
2018-12-23T12:09:15.908Z,1003.60
2018-12-23T12:10:15.895Z,1003.59
2018-12-23T12:11:15.863Z,1003.60
2018-12-23T12:12:15.901Z,1003.57
2018-12-23T12:13:15.817Z,1003.58
2018-12-23T12:14:15.866Z,1003.52
2018-12-23T12:15:15.777Z,1003.53
2018-12-23T12:16:15.763Z,1003.48
2018-12-23T12:17:15.806Z,1003.47
2018-12-23T12:18:15.728Z,1003.49
2018-12-23T12:19:15.690Z,1003.44
2018-12-23T12:20:15.707Z,1003.42
2018-12-23T12:21:15.732Z,1003.44
2018-12-23T12:22:15.717Z,1003.42